Dravosburg, PA (15034)

8:25 PM EST on January 27, 2015 (GMT -0500)
West Mifflin | Change Station
CLOSE
Current Station
Personal Weather Station
Location: West Mifflin, PA
Elevation: 1132 ft
Nearby Weather Stations

Elev 1132 ft 40.36 °N, 79.91 °W | Updated 2 seconds ago

Overcast
Overcast
20.1 °F
Feels Like 20 °F
N
0.0
Wind Variable Wind from North
Gusts 0.0 mph

Today
High -- | Low -- °F
--% Chance of Precip.
Yesterday
High -- | Low -- °F
Precip. -- in
7:33 AM 5:31 PM
First Quarter, 59% visible
Pressure 30.11 in
Visibility 10.0 miles
Clouds Overcast 1800 ft
Windchill 20 °F
Dew Point 11 °F
Humidity 68%
Rainfall 0.00 in
Snow Depth Not available.
UV 0.0 out of 12
Pollen .10 out of 12
Air Quality Not available.
Flu Activity Not available.
METAR KAGC 280053Z 32012G17KT 10SM OVC018 M08/M12 A3004 RMK AO2 SNE34 SLP196 P0000 T10781117

More Conditions Fewer Conditions

Pressure 30.11 in
Visibility 10.0 miles
Clouds Overcast 1800 ft
Windchill 20 °F
Dew Point 11 °F
Humidity 68%
Rainfall 0.00 in
Snow Depth Not available.
UV 0.0 out of 12
Pollen .10 out of 12
Air Quality Not available.
Flu Activity Not available.
METAR KAGC 280053Z 32012G17KT 10SM OVC018 M08/M12 A3004 RMK AO2 SNE34 SLP196 P0000 T10781117

More Conditions Fewer Conditions

10-Day Weather Forecast

Almanac

Astronomy

Jan. 27, 2015 Rise Set
Actual Time
Civil Twilight
Nautical Twilight
Astronomical Twilight
Moon
Length of Visible Light
Length of Day
Tomorrow will be .
, % of the Moon is Illuminated

Today's Extremes

State Highs State Lows

Community

WunderPhotos

Upload Photos

1,791,024 photos uploaded!

WunderBlogs® & News

Nearby

Air Quality

  Air Quality AQ Index Pollutant
Not available.

Snow Depth

Station Depth Elevation

Earthquake Activity

City Distance Mag. Time & Date
Minimum magnitude displayed is 2.5.

Coastal Water Temperatures

Place Temperature

Nearby Weather Stations